sensor_id;sensor_type;location;lat;lon;timestamp;pressure;altitude;pressure_sealevel;temperature;humidity
64158;BME280;50449;51.528;5.076;2022-11-20T00:00:55;101190.03;;;7.48;58.66
64158;BME280;50449;51.528;5.076;2022-11-20T00:03:20;101189.41;;;7.46;58.78
64158;BME280;50449;51.528;5.076;2022-11-20T00:05:46;101192.09;;;7.46;58.66
64158;BME280;50449;51.528;5.076;2022-11-20T00:08:12;101194.19;;;7.44;58.62
64158;BME280;50449;51.528;5.076;2022-11-20T00:10:41;101200.59;;;7.43;58.85
64158;BME280;50449;51.528;5.076;2022-11-20T00:13:07;101198.72;;;7.43;58.77
64158;BME280;50449;51.528;5.076;2022-11-20T00:15:33;101199.97;;;7.41;58.53
64158;BME280;50449;51.528;5.076;2022-11-20T00:17:58;101206.41;;;7.40;58.44
64158;BME280;50449;51.528;5.076;2022-11-20T00:20:23;101210.13;;;7.39;58.37
64158;BME280;50449;51.528;5.076;2022-11-20T00:22:49;101196.06;;;7.36;58.40
64158;BME280;50449;51.528;5.076;2022-11-20T00:25:15;101208.69;;;7.36;58.62
64158;BME280;50449;51.528;5.076;2022-11-20T00:27:40;101208.88;;;7.34;58.71
64158;BME280;50449;51.528;5.076;2022-11-20T00:30:06;101198.34;;;7.33;58.66
64158;BME280;50449;51.528;5.076;2022-11-20T00:32:32;101206.63;;;7.31;58.64
64158;BME280;50449;51.528;5.076;2022-11-20T00:34:57;101203.94;;;7.31;58.61
64158;BME280;50449;51.528;5.076;2022-11-20T00:37:22;101206.00;;;7.29;58.74
64158;BME280;50449;51.528;5.076;2022-11-20T00:39:48;101206.00;;;7.29;58.51
64158;BME280;50449;51.528;5.076;2022-11-20T00:42:13;101197.31;;;7.27;58.45
64158;BME280;50449;51.528;5.076;2022-11-20T00:44:39;101203.75;;;7.26;58.23
64158;BME280;50449;51.528;5.076;2022-11-20T00:47:04;101194.25;;;7.24;58.38
64158;BME280;50449;51.528;5.076;2022-11-20T00:49:29;101189.88;;;7.23;58.51
64158;BME280;50449;51.528;5.076;2022-11-20T00:51:55;101197.13;;;7.22;58.66
64158;BME280;50449;51.528;5.076;2022-11-20T00:54:20;101200.03;;;7.21;58.54
64158;BME280;50449;51.528;5.076;2022-11-20T00:56:46;101199.19;;;7.20;58.66
64158;BME280;50449;51.528;5.076;2022-11-20T00:59:11;101207.47;;;7.19;58.45
64158;BME280;50449;51.528;5.076;2022-11-20T01:01:36;101205.81;;;7.18;58.61
64158;BME280;50449;51.528;5.076;2022-11-20T01:04:02;101197.97;;;7.16;58.38
64158;BME280;50449;51.528;5.076;2022-11-20T01:06:33;101199.00;;;7.15;58.44
64158;BME280;50449;51.528;5.076;2022-11-20T01:09:04;101195.69;;;7.13;58.58
64158;BME280;50449;51.528;5.076;2022-11-20T01:11:33;101190.53;;;7.11;58.43
64158;BME280;50449;51.528;5.076;2022-11-20T01:14:01;101189.72;;;7.11;58.34
64158;BME280;50449;51.528;5.076;2022-11-20T01:16:33;101188.28;;;7.08;58.17
64158;BME280;50449;51.528;5.076;2022-11-20T01:19:00;101190.97;;;7.08;58.43
64158;BME280;50449;51.528;5.076;2022-11-20T01:21:30;101196.53;;;7.07;58.51
64158;BME280;50449;51.528;5.076;2022-11-20T01:23:56;101189.72;;;7.04;58.56
64158;BME280;50449;51.528;5.076;2022-11-20T01:26:24;101203.75;;;7.06;58.32
64158;BME280;50449;51.528;5.076;2022-11-20T01:28:50;101205.19;;;7.02;58.24
64158;BME280;50449;51.528;5.076;2022-11-20T01:31:24;101201.69;;;7.02;58.28
64158;BME280;50449;51.528;5.076;2022-11-20T01:33:52;101200.88;;;7.01;58.45
64158;BME280;50449;51.528;5.076;2022-11-20T01:36:19;101204.56;;;7.00;58.28
64158;BME280;50449;51.528;5.076;2022-11-20T01:38:45;101203.97;;;6.98;58.06
64158;BME280;50449;51.528;5.076;2022-11-20T01:41:11;101191.56;;;6.97;58.19
64158;BME280;50449;51.528;5.076;2022-11-20T01:43:58;101197.16;;;6.96;58.42
64158;BME280;50449;51.528;5.076;2022-11-20T01:46:23;101196.53;;;6.93;58.53
64158;BME280;50449;51.528;5.076;2022-11-20T01:49:09;101190.34;;;6.93;58.23
64158;BME280;50449;51.528;5.076;2022-11-20T01:51:42;101198.59;;;6.91;58.45
64158;BME280;50449;51.528;5.076;2022-11-20T01:54:14;101197.97;;;6.89;58.34
64158;BME280;50449;51.528;5.076;2022-11-20T01:56:44;101199.84;;;6.89;57.99
64158;BME280;50449;51.528;5.076;2022-11-20T01:59:12;101200.91;;;6.88;58.26
64158;BME280;50449;51.528;5.076;2022-11-20T02:01:39;101193.84;;;6.87;58.37
64158;BME280;50449;51.528;5.076;2022-11-20T02:04:06;101191.34;;;6.85;58.14
64158;BME280;50449;51.528;5.076;2022-11-20T02:06:38;101189.72;;;6.84;58.49
64158;BME280;50449;51.528;5.076;2022-11-20T02:09:04;101187.22;;;6.83;58.45
64158;BME280;50449;51.528;5.076;2022-11-20T02:11:30;101185.41;;;6.83;58.24
64158;BME280;50449;51.528;5.076;2022-11-20T02:13:56;101188.28;;;6.82;58.07
64158;BME280;50449;51.528;5.076;2022-11-20T02:16:28;101194.69;;;6.81;58.17
64158;BME280;50449;51.528;5.076;2022-11-20T02:18:57;101192.19;;;6.79;58.22
64158;BME280;50449;51.528;5.076;2022-11-20T02:26:49;101190.94;;;6.75;57.93
64158;BME280;50449;51.528;5.076;2022-11-20T02:29:18;101185.81;;;6.74;58.47
64158;BME280;50449;51.528;5.076;2022-11-20T02:31:45;101179.63;;;6.73;58.33
64158;BME280;50449;51.528;5.076;2022-11-20T02:34:10;101179.63;;;6.73;58.25
64158;BME280;50449;51.528;5.076;2022-11-20T02:36:36;101177.94;;;6.72;58.43
64158;BME280;50449;51.528;5.076;2022-11-20T02:39:04;101180.84;;;6.70;58.42
64158;BME280;50449;51.528;5.076;2022-11-20T02:41:35;101174.63;;;6.70;58.15
64158;BME280;50449;51.528;5.076;2022-11-20T02:44:01;101169.50;;;6.68;58.03
64158;BME280;50449;51.528;5.076;2022-11-20T02:46:26;101165.97;;;6.68;58.21
64158;BME280;50449;51.528;5.076;2022-11-20T02:48:52;101167.81;;;6.67;58.29
64158;BME280;50449;51.528;5.076;2022-11-20T02:51:17;101170.50;;;6.67;58.14
64158;BME280;50449;51.528;5.076;2022-11-20T02:53:42;101168.88;;;6.66;57.98
64158;BME280;50449;51.528;5.076;2022-11-20T02:56:08;101164.53;;;6.65;58.09
64158;BME280;50449;51.528;5.076;2022-11-20T02:58:33;101168.25;;;6.64;58.44
64158;BME280;50449;51.528;5.076;2022-11-20T03:00:58;101162.06;;;6.64;58.11
64158;BME280;50449;51.528;5.076;2022-11-20T03:03:24;101156.06;;;6.62;58.45
64158;BME280;50449;51.528;5.076;2022-11-20T03:05:49;101155.03;;;6.63;57.96
64158;BME280;50449;51.528;5.076;2022-11-20T03:08:14;101152.56;;;6.61;58.01
64158;BME280;50449;51.528;5.076;2022-11-20T03:10:40;101156.06;;;6.62;57.96
64158;BME280;50449;51.528;5.076;2022-11-20T03:13:05;101150.91;;;6.60;58.05
64158;BME280;50449;51.528;5.076;2022-11-20T03:15:30;101146.56;;;6.59;58.07
64158;BME280;50449;51.528;5.076;2022-11-20T03:17:56;101148.41;;;6.59;58.25
64158;BME280;50449;51.528;5.076;2022-11-20T03:20:22;101145.94;;;6.57;58.07
64158;BME280;50449;51.528;5.076;2022-11-20T03:22:47;101141.41;;;6.58;58.13
64158;BME280;50449;51.528;5.076;2022-11-20T03:25:12;101137.06;;;6.57;58.31
64158;BME280;50449;51.528;5.076;2022-11-20T03:27:38;101138.94;;;6.56;58.44
64158;BME280;50449;51.528;5.076;2022-11-20T03:30:04;101142.66;;;6.55;57.90
64158;BME280;50449;51.528;5.076;2022-11-20T03:32:30;101136.44;;;6.55;58.02
64158;BME280;50449;51.528;5.076;2022-11-20T03:34:56;101138.31;;;6.54;58.24
64158;BME280;50449;51.528;5.076;2022-11-20T03:37:21;101130.44;;;6.53;57.94
64158;BME280;50449;51.528;5.076;2022-11-20T03:39:46;101125.06;;;6.53;58.05
64158;BME280;50449;51.528;5.076;2022-11-20T03:42:12;101117.25;;;6.51;58.22
64158;BME280;50449;51.528;5.076;2022-11-20T03:44:56;101119.13;;;6.50;58.14
64158;BME280;50449;51.528;5.076;2022-11-20T03:47:21;101106.72;;;6.49;58.17
64158;BME280;50449;51.528;5.076;2022-11-20T03:49:46;101111.25;;;6.49;58.13
64158;BME280;50449;51.528;5.076;2022-11-20T03:52:12;101113.94;;;6.49;58.14
64158;BME280;50449;51.528;5.076;2022-11-20T03:54:37;101122.81;;;6.49;57.99
64158;BME280;50449;51.528;5.076;2022-11-20T03:57:02;101119.31;;;6.49;58.18
64158;BME280;50449;51.528;5.076;2022-11-20T03:59:28;101119.50;;;6.47;58.18
64158;BME280;50449;51.528;5.076;2022-11-20T04:01:53;101111.44;;;6.47;58.33
64158;BME280;50449;51.528;5.076;2022-11-20T04:04:18;101110.63;;;6.47;58.04
64158;BME280;50449;51.528;5.076;2022-11-20T04:06:44;101107.94;;;6.47;58.17
64158;BME280;50449;51.528;5.076;2022-11-20T04:09:09;101103.63;;;6.46;58.05
64158;BME280;50449;51.528;5.076;2022-11-20T04:11:36;101100.94;;;6.46;58.10
64158;BME280;50449;51.528;5.076;2022-11-20T04:14:04;101108.16;;;6.45;58.13
64158;BME280;50449;51.528;5.076;2022-11-20T04:16:34;101110.00;;;6.45;58.13
64158;BME280;50449;51.528;5.076;2022-11-20T04:19:01;101102.81;;;6.45;58.11
64158;BME280;50449;51.528;5.076;2022-11-20T04:21:27;101104.63;;;6.45;58.08
64158;BME280;50449;51.528;5.076;2022-11-20T04:23:53;101111.06;;;6.44;58.26
64158;BME280;50449;51.528;5.076;2022-11-20T04:26:19;101112.09;;;6.43;58.33
64158;BME280;50449;51.528;5.076;2022-11-20T04:28:45;101103.81;;;6.44;58.01
64158;BME280;50449;51.528;5.076;2022-11-20T04:31:13;101100.50;;;6.42;58.25
64158;BME280;50449;51.528;5.076;2022-11-20T04:33:39;101097.00;;;6.42;58.28
64158;BME280;50449;51.528;5.076;2022-11-20T04:36:16;101101.56;;;6.41;58.24
64158;BME280;50449;51.528;5.076;2022-11-20T04:38:43;101094.31;;;6.42;58.07
64158;BME280;50449;51.528;5.076;2022-11-20T04:41:14;101089.19;;;6.40;58.18
64158;BME280;50449;51.528;5.076;2022-11-20T04:43:40;101089.19;;;6.40;58.31
64158;BME280;50449;51.528;5.076;2022-11-20T04:46:05;101076.78;;;6.39;58.03
64158;BME280;50449;51.528;5.076;2022-11-20T04:48:31;101078.66;;;6.39;58.08
64158;BME280;50449;51.528;5.076;2022-11-20T04:50:56;101075.13;;;6.38;58.00
64158;BME280;50449;51.528;5.076;2022-11-20T04:53:22;101077.00;;;6.38;58.09
64158;BME280;50449;51.528;5.076;2022-11-20T04:55:48;101071.63;;;6.38;58.26
64158;BME280;50449;51.528;5.076;2022-11-20T04:58:14;101079.69;;;6.38;58.21
64158;BME280;50449;51.528;5.076;2022-11-20T05:00:39;101075.34;;;6.37;58.33
64158;BME280;50449;51.528;5.076;2022-11-20T05:03:05;101073.47;;;6.37;58.28
64158;BME280;50449;51.528;5.076;2022-11-20T05:05:31;101071.84;;;6.36;58.22
64158;BME280;50449;51.528;5.076;2022-11-20T05:07:57;101074.50;;;6.36;58.33
64158;BME280;50449;51.528;5.076;2022-11-20T05:10:23;101076.38;;;6.36;58.17
64158;BME280;50449;51.528;5.076;2022-11-20T05:12:49;101071.00;;;6.36;58.10
64158;BME280;50449;51.528;5.076;2022-11-20T05:15:14;101069.16;;;6.36;58.10
64158;BME280;50449;51.528;5.076;2022-11-20T05:17:39;101068.34;;;6.36;58.29
64158;BME280;50449;51.528;5.076;2022-11-20T05:20:05;101069.34;;;6.35;57.99
64158;BME280;50449;51.528;5.076;2022-11-20T05:22:31;101066.66;;;6.35;58.39
64158;BME280;50449;51.528;5.076;2022-11-20T05:24:56;101058.84;;;6.33;58.25
64158;BME280;50449;51.528;5.076;2022-11-20T05:27:21;101068.75;;;6.33;58.29
64158;BME280;50449;51.528;5.076;2022-11-20T05:29:47;101065.84;;;6.34;58.20
64158;BME280;50449;51.528;5.076;2022-11-20T05:32:12;101071.44;;;6.33;58.26
64158;BME280;50449;51.528;5.076;2022-11-20T05:34:37;101065.22;;;6.32;57.93
64158;BME280;50449;51.528;5.076;2022-11-20T05:37:03;101057.16;;;6.32;58.20
64158;BME280;50449;51.528;5.076;2022-11-20T05:39:28;101067.91;;;6.32;58.18
64158;BME280;50449;51.528;5.076;2022-11-20T05:41:54;101067.09;;;6.32;58.22
64158;BME280;50449;51.528;5.076;2022-11-20T05:44:38;101068.13;;;6.31;58.21
64158;BME280;50449;51.528;5.076;2022-11-20T05:47:03;101068.13;;;6.31;58.26
64158;BME280;50449;51.528;5.076;2022-11-20T05:49:28;101076.16;;;6.31;58.25
64158;BME280;50449;51.528;5.076;2022-11-20T05:51:54;101083.41;;;6.30;58.26
64158;BME280;50449;51.528;5.076;2022-11-20T05:54:19;101086.09;;;6.30;58.39
64158;BME280;50449;51.528;5.076;2022-11-20T05:56:44;101076.16;;;6.31;58.16
64158;BME280;50449;51.528;5.076;2022-11-20T05:59:10;101077.19;;;6.29;58.20
64158;BME280;50449;51.528;5.076;2022-11-20T06:01:35;101087.09;;;6.29;58.11
64158;BME280;50449;51.528;5.076;2022-11-20T06:04:01;101080.09;;;6.28;58.29
64158;BME280;50449;51.528;5.076;2022-11-20T06:06:27;101084.41;;;6.29;58.23
64158;BME280;50449;51.528;5.076;2022-11-20T06:08:54;101083.59;;;6.28;58.24
64158;BME280;50449;51.528;5.076;2022-11-20T06:11:20;101082.78;;;6.28;58.12
64158;BME280;50449;51.528;5.076;2022-11-20T06:13:46;101083.59;;;6.28;58.25
64158;BME280;50449;51.528;5.076;2022-11-20T06:16:14;101079.28;;;6.27;58.05
64158;BME280;50449;51.528;5.076;2022-11-20T06:18:40;101063.19;;;6.27;58.22
64158;BME280;50449;51.528;5.076;2022-11-20T06:21:07;101066.88;;;6.26;58.28
64158;BME280;50449;51.528;5.076;2022-11-20T06:23:34;101062.31;;;6.27;58.10
64158;BME280;50449;51.528;5.076;2022-11-20T06:26:10;101066.88;;;6.26;58.18
64158;BME280;50449;51.528;5.076;2022-11-20T06:28:36;101064.19;;;6.26;58.08
64158;BME280;50449;51.528;5.076;2022-11-20T06:31:03;101060.69;;;6.26;58.21
64158;BME280;50449;51.528;5.076;2022-11-20T06:33:29;101053.69;;;6.25;58.36
64158;BME280;50449;51.528;5.076;2022-11-20T06:35:58;101051.00;;;6.25;58.04
64158;BME280;50449;51.528;5.076;2022-11-20T06:38:25;101056.38;;;6.25;58.21
64158;BME280;50449;51.528;5.076;2022-11-20T06:40:52;101055.53;;;6.24;57.98
64158;BME280;50449;51.528;5.076;2022-11-20T06:43:18;101052.84;;;6.24;58.15
64158;BME280;50449;51.528;5.076;2022-11-20T06:45:43;101061.13;;;6.23;58.35
64158;BME280;50449;51.528;5.076;2022-11-20T06:48:09;101064.59;;;6.23;58.33
64158;BME280;50449;51.528;5.076;2022-11-20T06:50:36;101057.38;;;6.24;58.15
64158;BME280;50449;51.528;5.076;2022-11-20T06:53:02;101058.44;;;6.23;58.49
64158;BME280;50449;51.528;5.076;2022-11-20T06:55:28;101057.59;;;6.22;58.36
64158;BME280;50449;51.528;5.076;2022-11-20T06:57:53;101048.72;;;6.22;58.03
64158;BME280;50449;51.528;5.076;2022-11-20T07:00:19;101046.03;;;6.22;58.24
64158;BME280;50449;51.528;5.076;2022-11-20T07:02:44;101057.81;;;6.21;58.18
64158;BME280;50449;51.528;5.076;2022-11-20T07:05:09;101055.13;;;6.21;58.21
64158;BME280;50449;51.528;5.076;2022-11-20T07:07:35;101044.38;;;6.21;58.05
64158;BME280;50449;51.528;5.076;2022-11-20T07:10:00;101039.22;;;6.19;58.33
64158;BME280;50449;51.528;5.076;2022-11-20T07:12:25;101035.72;;;6.19;58.31
64158;BME280;50449;51.528;5.076;2022-11-20T07:14:51;101042.94;;;6.18;58.31
64158;BME280;50449;51.528;5.076;2022-11-20T07:17:16;101039.44;;;6.18;58.29
64158;BME280;50449;51.528;5.076;2022-11-20T07:19:41;101039.44;;;6.18;58.32
64158;BME280;50449;51.528;5.076;2022-11-20T07:22:08;101031.41;;;6.18;58.35
64158;BME280;50449;51.528;5.076;2022-11-20T07:24:33;101025.19;;;6.17;58.24
64158;BME280;50449;51.528;5.076;2022-11-20T07:26:58;101032.41;;;6.17;58.45
64158;BME280;50449;51.528;5.076;2022-11-20T07:29:24;101041.50;;;6.16;58.05
64158;BME280;50449;51.528;5.076;2022-11-20T07:31:49;101030.78;;;6.16;58.29
64158;BME280;50449;51.528;5.076;2022-11-20T07:34:14;101039.84;;;6.15;58.39
64158;BME280;50449;51.528;5.076;2022-11-20T07:36:40;101039.84;;;6.15;58.31
64158;BME280;50449;51.528;5.076;2022-11-20T07:39:05;101053.25;;;6.15;58.39
64158;BME280;50449;51.528;5.076;2022-11-20T07:41:31;101048.94;;;6.14;58.08
64158;BME280;50449;51.528;5.076;2022-11-20T07:43:56;101048.94;;;6.14;58.34
64158;BME280;50449;51.528;5.076;2022-11-20T07:46:21;101042.75;;;6.13;58.20
64158;BME280;50449;51.528;5.076;2022-11-20T07:48:47;101033.88;;;6.13;58.10
64158;BME280;50449;51.528;5.076;2022-11-20T07:51:12;101041.91;;;6.13;58.03
64158;BME280;50449;51.528;5.076;2022-11-20T07:53:38;101042.13;;;6.11;58.22
64158;BME280;50449;51.528;5.076;2022-11-20T07:56:04;101043.16;;;6.10;58.28
64158;BME280;50449;51.528;5.076;2022-11-20T07:58:30;101051.19;;;6.10;58.46
64158;BME280;50449;51.528;5.076;2022-11-20T08:00:57;101049.53;;;6.09;58.32
64158;BME280;50449;51.528;5.076;2022-11-20T08:03:23;101061.09;;;6.10;58.51
64158;BME280;50449;51.528;5.076;2022-11-20T08:05:49;101044.16;;;6.09;57.97
64158;BME280;50449;51.528;5.076;2022-11-20T08:08:14;101054.91;;;6.09;57.99
64158;BME280;50449;51.528;5.076;2022-11-20T08:10:39;101051.41;;;6.09;58.14
64158;BME280;50449;51.528;5.076;2022-11-20T08:13:05;101047.06;;;6.07;58.29
64158;BME280;50449;51.528;5.076;2022-11-20T08:15:50;101056.13;;;6.06;58.34
64158;BME280;50449;51.528;5.076;2022-11-20T08:18:18;101056.97;;;6.07;58.26
64158;BME280;50449;51.528;5.076;2022-11-20T08:20:43;101051.00;;;6.05;58.10
64158;BME280;50449;51.528;5.076;2022-11-20T08:23:09;101052.00;;;6.04;58.07
64158;BME280;50449;51.528;5.076;2022-11-20T08:25:38;101054.69;;;6.04;58.22
64158;BME280;50449;51.528;5.076;2022-11-20T08:28:04;101052.00;;;6.04;58.02
64158;BME280;50449;51.528;5.076;2022-11-20T08:30:30;101047.69;;;6.03;58.09
64158;BME280;50449;51.528;5.076;2022-11-20T08:33:04;101052.22;;;6.02;58.20
64158;BME280;50449;51.528;5.076;2022-11-20T08:35:33;101048.69;;;6.02;58.26
64158;BME280;50449;51.528;5.076;2022-11-20T08:37:59;101054.06;;;6.02;58.17
64158;BME280;50449;51.528;5.076;2022-11-20T08:40:27;101058.41;;;6.03;57.99
64158;BME280;50449;51.528;5.076;2022-11-20T08:42:52;101050.38;;;6.03;58.16
64158;BME280;50449;51.528;5.076;2022-11-20T08:45:18;101052.81;;;6.04;58.28
64158;BME280;50449;51.528;5.076;2022-11-20T08:47:44;101050.38;;;6.03;58.00
64158;BME280;50449;51.528;5.076;2022-11-20T08:50:14;101046.66;;;6.04;58.46
64158;BME280;50449;51.528;5.076;2022-11-20T08:52:40;101036.75;;;6.04;57.95
64158;BME280;50449;51.528;5.076;2022-11-20T08:55:06;101040.47;;;6.03;58.47
64158;BME280;50449;51.528;5.076;2022-11-20T08:57:32;101040.28;;;6.05;58.35
64158;BME280;50449;51.528;5.076;2022-11-20T08:59:58;101029.53;;;6.05;58.14
64158;BME280;50449;51.528;5.076;2022-11-20T09:02:24;101040.28;;;6.05;58.22
64158;BME280;50449;51.528;5.076;2022-11-20T09:04:49;101040.28;;;6.05;58.39
64158;BME280;50449;51.528;5.076;2022-11-20T09:07:14;101028.50;;;6.06;58.21
64158;BME280;50449;51.528;5.076;2022-11-20T09:09:40;101031.19;;;6.06;58.11
64158;BME280;50449;51.528;5.076;2022-11-20T09:12:05;101028.31;;;6.07;58.24
64158;BME280;50449;51.528;5.076;2022-11-20T09:14:30;101015.91;;;6.06;58.16
64158;BME280;50449;51.528;5.076;2022-11-20T09:16:56;101006.22;;;6.05;58.32
64158;BME280;50449;51.528;5.076;2022-11-20T09:19:23;101006.84;;;6.07;58.13
64158;BME280;50449;51.528;5.076;2022-11-20T09:21:49;101006.84;;;6.07;58.47
64158;BME280;50449;51.528;5.076;2022-11-20T09:24:14;100999.81;;;6.06;58.46
64158;BME280;50449;51.528;5.076;2022-11-20T09:26:40;100993.44;;;6.07;58.07
64158;BME280;50449;51.528;5.076;2022-11-20T09:34:16;100984.53;;;6.07;58.22
64158;BME280;50449;51.528;5.076;2022-11-20T09:36:41;100980.84;;;6.08;58.38
64158;BME280;50449;51.528;5.076;2022-11-20T09:39:07;100977.13;;;6.09;58.45
64158;BME280;50449;51.528;5.076;2022-11-20T09:41:43;100970.94;;;6.09;58.31
64158;BME280;50449;51.528;5.076;2022-11-20T09:50:52;100958.34;;;6.09;58.61
64158;BME280;50449;51.528;5.076;2022-11-20T09:54:05;100942.25;;;6.09;58.55
64158;BME280;50449;51.528;5.076;2022-11-20T09:56:37;100939.56;;;6.09;58.30
64158;BME280;50449;51.528;5.076;2022-11-20T09:59:06;100928.84;;;6.09;58.19
64158;BME280;50449;51.528;5.076;2022-11-20T10:01:35;100920.00;;;6.09;58.36
64158;BME280;50449;51.528;5.076;2022-11-20T10:04:02;100918.94;;;6.10;58.59
64158;BME280;50449;51.528;5.076;2022-11-20T10:06:36;100912.75;;;6.09;58.22
64158;BME280;50449;51.528;5.076;2022-11-20T10:09:29;100918.94;;;6.10;58.31
64158;BME280;50449;51.528;5.076;2022-11-20T10:14:45;100910.91;;;6.10;58.42
64158;BME280;50449;51.528;5.076;2022-11-20T10:17:33;100909.06;;;6.10;58.28
64158;BME280;50449;51.528;5.076;2022-11-20T10:25:50;100905.97;;;6.13;58.16
64158;BME280;50449;51.528;5.076;2022-11-20T10:31:00;100887.19;;;6.13;58.65
64158;BME280;50449;51.528;5.076;2022-11-20T10:33:31;100879.97;;;6.14;58.51
64158;BME280;50449;51.528;5.076;2022-11-20T10:36:08;100873.53;;;6.15;58.39
64158;BME280;50449;51.528;5.076;2022-11-20T10:38:38;100870.84;;;6.15;58.41
64158;BME280;50449;51.528;5.076;2022-11-20T10:41:05;100865.72;;;6.13;58.35
64158;BME280;50449;51.528;5.076;2022-11-20T10:43:54;100852.31;;;6.13;58.70
64158;BME280;50449;51.528;5.076;2022-11-20T10:46:25;100851.50;;;6.13;58.55
64158;BME280;50449;51.528;5.076;2022-11-20T10:48:51;100841.59;;;6.13;58.89
64158;BME280;50449;51.528;5.076;2022-11-20T10:56:50;100854.78;;;6.15;58.67
64158;BME280;50449;51.528;5.076;2022-11-20T11:02:20;100842.22;;;6.15;58.74
64158;BME280;50449;51.528;5.076;2022-11-20T11:04:50;100836.00;;;6.15;58.66
64158;BME280;50449;51.528;5.076;2022-11-20T11:07:33;100833.13;;;6.16;58.94
64158;BME280;50449;51.528;5.076;2022-11-20T11:10:00;100815.38;;;6.15;58.67
64158;BME280;50449;51.528;5.076;2022-11-20T11:12:28;100820.53;;;6.17;58.61
64158;BME280;50449;51.528;5.076;2022-11-20T11:14:55;100820.31;;;6.18;59.01
64158;BME280;50449;51.528;5.076;2022-11-20T11:17:32;100814.13;;;6.18;58.71
64158;BME280;50449;51.528;5.076;2022-11-20T11:22:34;100812.91;;;6.20;58.90
64158;BME280;50449;51.528;5.076;2022-11-20T11:25:00;100808.34;;;6.21;58.87
64158;BME280;50449;51.528;5.076;2022-11-20T11:27:26;100810.81;;;6.22;58.82
64158;BME280;50449;51.528;5.076;2022-11-20T11:30:02;100796.38;;;6.23;59.11
64158;BME280;50449;51.528;5.076;2022-11-20T11:32:29;100790.81;;;6.25;59.22
64158;BME280;50449;51.528;5.076;2022-11-20T11:35:19;100794.06;;;6.27;59.05
64158;BME280;50449;51.528;5.076;2022-11-20T11:37:48;100790.56;;;6.26;58.78
64158;BME280;50449;51.528;5.076;2022-11-20T11:40:17;100781.50;;;6.27;59.12
64158;BME280;50449;51.528;5.076;2022-11-20T11:42:48;100771.59;;;6.28;59.29
64158;BME280;50449;51.528;5.076;2022-11-20T11:45:16;100766.00;;;6.29;58.92
64158;BME280;50449;51.528;5.076;2022-11-20T12:03:39;100703.44;;;6.36;58.87
64158;BME280;50449;51.528;5.076;2022-11-20T12:06:14;100699.72;;;6.37;58.78
64158;BME280;50449;51.528;5.076;2022-11-20T12:14:27;100699.06;;;6.41;58.91
64158;BME280;50449;51.528;5.076;2022-11-20T12:16:55;100689.41;;;6.40;59.11
64158;BME280;50449;51.528;5.076;2022-11-20T12:19:30;100692.66;;;6.42;58.90
64158;BME280;50449;51.528;5.076;2022-11-20T12:28:13;100671.81;;;6.44;59.01
64158;BME280;50449;51.528;5.076;2022-11-20T12:36:34;100663.31;;;6.47;58.94
64158;BME280;50449;51.528;5.076;2022-11-20T12:39:15;100655.06;;;6.49;59.04
64158;BME280;50449;51.528;5.076;2022-11-20T12:45:07;100628.03;;;6.50;59.08
64158;BME280;50449;51.528;5.076;2022-11-20T12:47:48;100623.47;;;6.51;58.88
64158;BME280;50449;51.528;5.076;2022-11-20T12:56:30;100611.25;;;6.55;59.01
64158;BME280;50449;51.528;5.076;2022-11-20T12:59:21;100606.72;;;6.56;59.26
64158;BME280;50449;51.528;5.076;2022-11-20T13:02:14;100587.69;;;6.57;59.34
64158;BME280;50449;51.528;5.076;2022-11-20T13:07:35;100584.59;;;6.60;58.93
64158;BME280;50449;51.528;5.076;2022-11-20T13:10:00;100568.25;;;6.62;59.08
64158;BME280;50449;51.528;5.076;2022-11-20T13:12:34;100571.53;;;6.64;59.46
64158;BME280;50449;51.528;5.076;2022-11-20T13:15:16;100569.47;;;6.66;59.07
64158;BME280;50449;51.528;5.076;2022-11-20T13:17:52;100565.50;;;6.68;59.35
64158;BME280;50449;51.528;5.076;2022-11-20T13:20:19;100554.78;;;6.68;59.19
64158;BME280;50449;51.528;5.076;2022-11-20T13:22:49;100557.22;;;6.70;59.13
64158;BME280;50449;51.528;5.076;2022-11-20T13:25:28;100549.78;;;6.72;58.98
64158;BME280;50449;51.528;5.076;2022-11-20T13:27:56;100541.50;;;6.74;59.11
64158;BME280;50449;51.528;5.076;2022-11-20T13:30:24;100536.13;;;6.74;59.20
64158;BME280;50449;51.528;5.076;2022-11-20T13:33:06;100530.53;;;6.75;59.12
64158;BME280;50449;51.528;5.076;2022-11-20T13:35:36;100540.00;;;6.78;59.11
64158;BME280;50449;51.528;5.076;2022-11-20T13:38:13;100524.75;;;6.78;59.29
64158;BME280;50449;51.528;5.076;2022-11-20T13:40:56;100529.88;;;6.80;59.13
64158;BME280;50449;51.528;5.076;2022-11-20T13:45:56;100520.53;;;6.82;59.17
64158;BME280;50449;51.528;5.076;2022-11-20T13:48:23;100507.13;;;6.82;59.13
64158;BME280;50449;51.528;5.076;2022-11-20T13:51:02;100506.09;;;6.83;59.30
64158;BME280;50449;51.528;5.076;2022-11-20T13:53:35;100500.72;;;6.83;59.28
64158;BME280;50449;51.528;5.076;2022-11-20T14:01:34;100492.22;;;6.86;59.33
64158;BME280;50449;51.528;5.076;2022-11-20T14:04:06;100487.66;;;6.87;59.20
64158;BME280;50449;51.528;5.076;2022-11-20T14:06:44;100482.09;;;6.88;59.48
64158;BME280;50449;51.528;5.076;2022-11-20T14:09:12;100472.97;;;6.89;59.37
64158;BME280;50449;51.528;5.076;2022-11-20T14:11:46;100469.25;;;6.90;59.08
64158;BME280;50449;51.528;5.076;2022-11-20T14:14:20;100461.78;;;6.92;59.19
64158;BME280;50449;51.528;5.076;2022-11-20T14:16:46;100459.94;;;6.93;59.22
64158;BME280;50449;51.528;5.076;2022-11-20T14:19:23;100455.13;;;6.95;59.32
64158;BME280;50449;51.528;5.076;2022-11-20T14:22:06;100437.19;;;6.96;59.22
64158;BME280;50449;51.528;5.076;2022-11-20T14:24:31;100435.31;;;6.96;59.30
64158;BME280;50449;51.528;5.076;2022-11-20T14:26:57;100431.56;;;6.97;59.50
64158;BME280;50449;51.528;5.076;2022-11-20T14:29:27;100422.47;;;6.98;59.47
64158;BME280;50449;51.528;5.076;2022-11-20T14:31:54;100414.19;;;7.00;59.44
64158;BME280;50449;51.528;5.076;2022-11-20T14:34:29;100406.13;;;7.00;59.36
64158;BME280;50449;51.528;5.076;2022-11-20T14:37:03;100401.34;;;7.02;59.51
64158;BME280;50449;51.528;5.076;2022-11-20T14:39:32;100393.28;;;7.02;59.54